createdAt,value
2017-08-14T17:48:49.789Z,8.68
2017-08-14T19:42:29.924Z,18.75
2017-08-14T20:26:45.257Z,19.15
2017-08-14T20:29:14.090Z,17.27
2017-08-14T20:31:43.080Z,16.43
2017-08-14T20:34:12.313Z,14.63
2017-08-14T20:36:41.166Z,43.63
2017-08-14T20:39:10.134Z,77.75
2017-08-14T20:49:43.744Z,23.23
2017-08-14T20:52:11.236Z,19.85
2017-08-14T20:54:39.791Z,16.15
2017-08-14T20:57:07.259Z,19.58
2017-08-14T20:59:35.106Z,15.23
2017-08-14T21:02:04.465Z,15.75
2017-08-14T21:04:32.865Z,12.67
2017-08-14T21:07:00.609Z,21.12
2017-08-14T21:09:29.146Z,14.10
2017-08-14T21:11:56.847Z,14.07
2017-08-14T21:14:24.305Z,16.60
2017-08-14T22:08:25.064Z,12.35
2017-08-14T22:10:52.545Z,12.83
2017-08-14T22:13:20.293Z,16.45
2017-08-14T22:15:47.917Z,17.47
2017-08-14T22:18:15.518Z,11.35
2017-08-14T22:20:43.581Z,15.73
2017-08-14T22:30:20.737Z,18.42
2017-08-14T22:32:48.472Z,18.35
2017-08-14T22:35:15.955Z,14.10
2017-08-14T22:37:43.444Z,12.52
2017-08-14T22:40:11.077Z,16.75
2017-08-14T22:42:38.564Z,16.62
2017-08-14T22:45:07.875Z,16.70
2017-08-14T22:47:37.817Z,19.02
2017-08-14T22:50:08.680Z,22.08
2017-08-14T22:52:38.258Z,17.58
2017-08-14T22:55:07.746Z,56.95
2017-08-14T22:57:35.224Z,61.25
2017-08-14T23:00:03.173Z,40.22
2017-08-14T23:02:30.993Z,30.50
2017-08-14T23:04:59.380Z,26.70
2017-08-14T23:07:28.859Z,19.77
2017-08-14T23:09:56.305Z,18.67
2017-08-14T23:12:24.468Z,23.50
2017-08-14T23:14:52.064Z,13.77
2017-08-14T23:17:20.532Z,12.50
2017-08-14T23:19:51.250Z,14.32
2017-08-14T23:22:19.316Z,12.95
2017-08-14T23:24:51.585Z,10.88
2017-08-14T23:27:20.355Z,25.10
2017-08-14T23:29:47.919Z,130.07
2017-08-14T23:32:15.881Z,73.65
2017-08-14T23:34:43.352Z,95.57
2017-08-14T23:37:11.590Z,76.85
2017-08-14T23:39:42.632Z,38.88
2017-08-14T23:42:12.124Z,26.52
2017-08-14T23:44:40.366Z,19.37
2017-08-14T23:47:07.859Z,16.35
2017-08-14T23:49:36.013Z,34.92
2017-08-14T23:52:04.470Z,68.85
2017-08-14T23:54:31.933Z,42.60
2017-08-14T23:57:00.882Z,136.98
2017-08-14T23:59:28.886Z,126.78
